Ninde, Virginia
Current Conditions -  °F | °C
As of 10:56 AM on Sunday 21 Dec 2014 (Local Time) from KNYG Reporting Station
Overcast Overcast  
Wind Chill: 35°   Ceiling: 7000
Heat Index: 39°   Visibility: 10mi
Dew Point: 24°   Wind: 6mph
Humidity: 55%   Direction: 90°E
Pressure: 30.39"   Gusts: NA
Location:  38.27°N, 77.06°W
Report Text: KNYG 211556Z AUTO 09005KT 10SM OVC070 04/M04 A3039 RMK AO2 SLP290 T00391044 $
Loading
Personal Weather Stations






























Interactive Weather Map New forecast layout! Learn more

10-Day Weather Forecast

Advertisements
Track Severe Weather on mobile